Aviation Digital Data Service (ADDS)

Output produced by METARs form (1534 UTC 25 June 2017)
found at http://aviationweather.gov/adds/metars/
 
KISP 251456Z VRB03KT 10SM FEW080 SCT110 SCT250 27/13 A2999 RMK AO2 SLP152 T02720128 52001 $
KISP 251411Z 2514/2612 VRB04KT P6SM FEW080 SCT100 SCT250 
     FM251600 21006KT P6SM SCT100 SCT250 
     FM251800 21010G17KT P6SM FEW080 
     FM252300 23008KT P6SM SCT060 
     FM260100 25005KT P6SM SCT060 
     FM260600 28004KT P6SM FEW060
       
KJFK 251451Z 19007KT 10SM SCT110 SCT200 BKN250 26/16 A3000 RMK AO2 SLP159 T02610161 52002 $
KJFK 251411Z 2514/2618 19005KT P6SM FEW100 FEW250 
     FM251500 19010KT P6SM SCT080 
     FM251700 19012KT P6SM SCT080 
     FM252000 19014G18KT P6SM SCT080 
     FM252300 21012KT P6SM SCT060 
     FM260100 23008KT P6SM SCT060 
     FM260300 28010KT P6SM SCT060 
     FM261000 28008KT P6SM SKC 
     FM261600 22010KT P6SM FEW050
       
KBDR 251452Z 18008KT 10SM FEW100 25/16 A2998 RMK AO2 SLP153 T02500161 58000
KBDR 251414Z 2514/2612 20008KT P6SM SCT250 
     FM251800 21011G18KT P6SM FEW080 
     FM252300 23009KT P6SM SCT060 
     FM260100 26006KT P6SM SCT060 
     FM260500 28004KT P6SM FEW060